Flight Track Log - Related Links

Times and Time Zones

All times are in EDT time to prevent confusion due to time zone crossing. See the FLG3482 flight status page for this flight to view local times or setup timezone preferences in your user account.

Time Position Orientation Groundspeed Altitude Reporting Facility
EDT Latitude Longitude Course Direction KTS MPH feet Rate Location/Type
Mon 01:49:44 PM 39.0500 -84.7000 270° West 154 177 1,600  Level Cincinnati TRACON
Mon 01:50:20 PM 39.0500 -84.7333 270° West 166 191 2,300 1,375 Climbing Cincinnati TRACON
Mon 01:51:20 PM 39.0500 -84.8167 270° West 274 315 3,800 1,901 Climbing Cincinnati TRACON
Mon 01:52:01 PM 39.0547 -84.8819 275° West 304 350 5,500 2,621 Climbing Indianapolis Center
Mon 01:53:03 PM 39.1078 -84.9533 314° West 279 321 8,300 2,468 Climbing Indianapolis Center
Mon 01:54:05 PM 39.1753 -85.0008 331° Northwest 292 336 10,600 1,854 Climbing Indianapolis Center
Mon 01:55:06 PM 39.2633 -85.0056 358° North 311 358 12,100 1,171 Climbing Indianapolis Center
Mon 01:56:08 PM 39.3583 -85.0103 358° North 331 381 13,000 581 Climbing Indianapolis Center
Mon 01:57:10 PM 39.4664 -85.0211 356° North 370 426 13,300 1,016 Climbing Indianapolis Center
Mon 01:58:12 PM 39.5839 -85.0950 334° Northwest 393 452 15,100 1,500 Climbing Indianapolis Center
Mon 01:59:14 PM 39.6789 -85.1553 334° Northwest 388 447 16,400 1,122 Climbing Indianapolis Center
Mon 02:00:15 PM 39.7736 -85.2153 334° Northwest 385 443 17,400 976 Climbing Indianapolis Center
Mon 02:01:17 PM 39.8694 -85.2764 334° Northwest 385 443 18,400 968 Climbing Indianapolis Center
Mon 02:02:19 PM 39.9667 -85.3383 334° Northwest 385 443 19,400 968 Climbing Indianapolis Center
Mon 02:03:21 PM 40.0633 -85.3997 334° Northwest 386 444 20,400 1,073 Climbing Indianapolis Center
Mon 02:04:22 PM 40.1806 -85.4747 334° Northwest 390 449 21,600 780 Climbing Indianapolis Center
Mon 02:05:24 PM 40.2781 -85.5389 333° Northwest 390 449 22,000 194 Climbing Indianapolis Center
Mon 02:06:26 PM 40.3808 -85.6047 334° Northwest 405 466 22,000 -49 Level Indianapolis Center
Mon 02:07:27 PM 40.4861 -85.6761 333° Northwest 422 486 21,900 -582 Descending Indianapolis Center
Mon 02:08:40 PM 40.6014 -85.7833 325° Northwest 429 494 20,700 -1,022 Descending Chicago Center
Mon 02:09:42 PM 40.7050 -85.8800 325° Northwest 421 484 19,600 -823 Descending Chicago Center
Mon 02:10:44 PM 40.7989 -85.9678 325° Northwest 417 480 19,000 -290 Descending Chicago Center
Mon 02:11:46 PM 40.8925 -86.0578 324° Northwest 415 478 19,000 -48 Level Chicago Center
Mon 02:12:48 PM 40.9778 -86.1400 324° Northwest 381 438 18,900 -581 Descending Chicago Center
Mon 02:13:50 PM 41.0628 -86.2181 325° Northwest 351 404 17,800 -1,056 Descending Chicago Center
Mon 02:14:53 PM 41.1461 -86.2983 324° Northwest 333 383 16,700 -1,008 Descending Chicago Center
Mon 02:15:55 PM 41.2217 -86.3717 324° Northwest 335 386 15,700 -968 Descending Chicago Center
Mon 02:16:57 PM 41.3031 -86.4497 324° Northwest 358 412 14,700 -968 Descending Chicago Center
Mon 02:17:59 PM 41.3894 -86.5339 324° Northwest 378 435 13,700 -968 Descending Chicago Center
Mon 02:19:01 PM 41.4717 -86.6131 324° Northwest 368 423 12,700 -816 Descending Chicago Center
Mon 02:20:04 PM 41.5522 -86.6917 324° Northwest 360 414 12,000 -288 Descending Chicago Center
Mon 02:21:06 PM 41.6533 -86.7864 325° Northwest 362 417 12,100  Climbing Chicago Center
Mon 02:22:08 PM 41.7622 -86.8067 352° North 368 423 12,000 -242 Descending Chicago Center
Mon 02:23:10 PM 41.8597 -86.8303 350° North 362 417 11,600 -871 Descending Chicago Center
Mon 02:24:12 PM 41.9311 -86.9236 316° Northwest 340 391 10,200 -720 Descending Chicago Center
Mon 02:25:15 PM 41.9578 -87.0425 287° West 336 387 10,100 -48 Descending Chicago Center
Mon 02:26:17 PM 41.9792 -87.1783 282° West 345 397 10,100 -145 Level Chicago Center
Mon 02:27:19 PM 41.9819 -87.2956 272° West 308 354 9,800 -1,016 Descending Chicago Center
Mon 02:28:21 PM 41.9811 -87.4014 269° West 268 308 8,000 -1,694 Descending Chicago Center
Mon 02:29:23 PM 41.9842 -87.4994 272° West 265 305 6,300 -1,488 Descending Chicago Center
Mon 02:30:26 PM 41.9831 -87.5975 269° West 249 287 4,900 -1,296 Descending Chicago Center
Mon 02:31:28 PM 41.9836 -87.6853 271° West 238 274 3,600 -1,161 Descending Chicago Center
Mon 02:32:30 PM 41.9828 -87.7739 269° West 224 258 2,500 -1,065 Descending Chicago Center
Mon 02:33:32 PM 41.9833 -87.8394 271° West 177 204 1,400 -968 Descending Chicago Center
Mon 02:34:34 PM 41.9833 -87.8842 270° West 148 170 500 -871 Descending Chicago Center
Mon 02:36:00 PM 41.9667 -87.9000 270° West  Level FlightAware Approximate

Login

Don't have an account? Register now (free) for customized features, flight alerts, and more!